Time;durP1;ratioP1;P1;durP2;ratioP2;P2;SDS_P1;SDS_P2;PMS_P1;PMS_P2;Temp;Humidity;BMP_temperature;BMP_pressure;BME280_temperature;BME280_humidity;BME280_pressure;Samples;Min_cycle;Max_cycle;Signal;HPM_P1;HPM_P2
2023/05/03 00:00:01;;;;;;;0.13;0.13;;;12.40;99.90;;;;;;5077514;28;20023;-74
2023/05/03 00:02:27;;;;;;;0.22;0.22;;;12.40;99.90;;;;;;5077668;28;20024;-74
2023/05/03 00:04:53;;;;;;;0.30;0.30;;;12.30;99.90;;;;;;5077766;28;20310;-74
2023/05/03 00:07:21;;;;;;;0.15;0.15;;;12.30;99.90;;;;;;5078070;28;20023;-79
2023/05/03 00:09:48;;;;;;;0.88;0.88;;;12.30;99.90;;;;;;5075731;28;20248;-73
2023/05/03 00:12:14;;;;;;;0.47;0.47;;;12.30;99.90;;;;;;5078958;28;20407;-74
2023/05/03 00:14:40;;;;;;;0.20;0.20;;;12.30;99.90;;;;;;5080629;28;20031;-74
2023/05/03 00:17:06;;;;;;;0.73;0.73;;;12.40;99.90;;;;;;5080853;28;20491;-75
2023/05/03 00:19:32;;;;;;;0.90;0.90;;;12.30;99.90;;;;;;5080809;28;20384;-74
2023/05/03 00:21:59;;;;;;;0.20;0.20;;;12.30;99.90;;;;;;5080934;28;20235;-74
2023/05/03 00:24:24;;;;;;;0.20;0.20;;;12.30;99.90;;;;;;5080851;28;20498;-74
2023/05/03 00:26:50;;;;;;;0.10;0.10;;;12.30;99.90;;;;;;5080898;28;20031;-74
2023/05/03 00:29:17;;;;;;;0.73;0.68;;;12.40;99.90;;;;;;5081024;28;20610;-75
2023/05/03 00:31:43;;;;;;;0.20;0.20;;;12.40;99.90;;;;;;5080663;28;20024;-79
2023/05/03 00:34:09;;;;;;;0.13;0.13;;;12.30;99.90;;;;;;5081202;28;20024;-75
2023/05/03 00:36:35;;;;;;;0.70;0.70;;;12.30;99.90;;;;;;5080923;28;20046;-75
2023/05/03 00:39:00;;;;;;;0.10;0.10;;;12.30;99.90;;;;;;5081013;28;20038;-74
2023/05/03 00:41:26;;;;;;;0.10;0.10;;;12.30;99.90;;;;;;5080722;28;20020;-73
2023/05/03 00:43:52;;;;;;;0.13;0.13;;;12.20;99.90;;;;;;5081071;28;20039;-83
2023/05/03 00:46:18;;;;;;;0.20;0.20;;;12.30;99.90;;;;;;5080925;28;20020;-79
2023/05/03 00:48:46;;;;;;;0.30;0.30;;;12.20;99.90;;;;;;5080896;28;20514;-75
2023/05/03 00:51:14;;;;;;;4.45;4.25;;;12.20;99.90;;;;;;5080346;28;20016;-80
2023/05/03 00:53:43;;;;;;;0.20;0.20;;;12.20;99.90;;;;;;5080213;28;20550;-74
2023/05/03 00:56:10;;;;;;;0.20;0.20;;;10.20;99.90;;;;;;5080561;28;20312;-74
2023/05/03 00:58:39;;;;;;;0.20;0.20;;;12.20;99.90;;;;;;5080472;28;20212;-74
2023/05/03 01:01:06;;;;;;;4.05;3.88;;;12.10;99.90;;;;;;5081687;28;20483;-75
2023/05/03 01:03:35;;;;;;;0.40;0.40;;;12.10;99.90;;;;;;5079582;28;20028;-73
2023/05/03 01:06:20;;;;;;;0.17;0.17;;;12.10;99.90;;;;;;5080889;28;20016;-74
2023/05/03 01:09:24;;;;;;;0.17;0.17;;;12.00;99.90;;;;;;5080444;28;20399;-78
2023/05/03 01:12:03;;;;;;;0.43;0.43;;;12.00;99.90;;;;;;5003075;28;20037;-73
2023/05/03 01:14:45;;;;;;;0.10;0.10;;;12.00;99.90;;;;;;5021045;28;20026;-74
2023/05/03 01:17:12;;;;;;;0.20;0.20;;;12.00;99.90;;;;;;5021212;28;20790;-75
2023/05/03 01:19:50;;;;;;;0.10;0.10;;;12.00;99.90;;;;;;5019271;28;20018;-73
2023/05/03 01:22:46;;;;;;;0.10;0.10;;;11.90;99.90;;;;;;5021834;28;20041;-74
2023/05/03 01:25:13;;;;;;;0.20;0.20;;;12.00;99.90;;;;;;5021541;28;20021;-77
2023/05/03 01:27:40;;;;;;;0.10;0.10;;;11.90;99.90;;;;;;5037191;28;20013;-74
2023/05/03 01:30:10;;;;;;;0.20;0.20;;;12.00;99.90;;;;;;5039031;28;20500;-77
2023/05/03 01:32:45;;;;;;;0.20;0.20;;;12.00;99.90;;;;;;5038167;28;20022;-80
2023/05/03 01:35:29;;;;;;;0.40;0.40;;;12.00;99.90;;;;;;5032228;28;20037;-77
2023/05/03 01:37:56;;;;;;;;;;;12.00;99.90;;;;;;5034179;28;20086;-76
2023/05/03 01:40:22;;;;;;;0.20;0.20;;;12.00;99.90;;;;;;5022464;28;19940;-75
2023/05/03 01:42:50;;;;;;;0.20;0.20;;;12.00;99.90;;;;;;5019851;28;20047;-76
2023/05/03 01:45:16;;;;;;;0.20;0.20;;;12.00;99.90;;;;;;5001099;28;20041;-74
2023/05/03 01:47:42;;;;;;;0.52;0.52;;;12.00;99.90;;;;;;5022144;28;20017;-74
2023/05/03 01:50:08;;;;;;;1.60;1.52;;;11.90;99.90;;;;;;5082690;28;20077;-73
2023/05/03 01:52:34;;;;;;;0.10;0.10;;;11.90;99.90;;;;;;5081972;28;20038;-74
2023/05/03 01:55:00;;;;;;;0.20;0.20;;;11.80;99.90;;;;;;5080754;28;20343;-74
2023/05/03 01:57:26;;;;;;;0.10;0.10;;;11.70;99.90;;;;;;5085007;28;20032;-74
2023/05/03 01:59:51;;;;;;;0.20;0.20;;;11.70;99.90;;;;;;5084940;28;20031;-75
2023/05/03 02:02:17;;;;;;;0.20;0.20;;;11.70;99.90;;;;;;5086862;28;20024;-76
2023/05/03 02:04:43;;;;;;;0.15;0.15;;;11.70;99.90;;;;;;5086070;28;20023;-75
2023/05/03 02:07:08;;;;;;;0.20;0.20;;;11.70;99.90;;;;;;5083746;28;20020;-74
2023/05/03 02:09:34;;;;;;;0.10;0.10;;;11.80;99.90;;;;;;5090253;28;20122;-76
2023/05/03 02:12:00;;;;;;;0.10;0.10;;;11.70;99.90;;;;;;5092749;28;20016;-74
2023/05/03 02:14:27;;;;;;;0.10;0.10;;;11.70;99.90;;;;;;5102229;28;20020;-74
2023/05/03 02:16:55;;;;;;;0.10;0.10;;;11.70;99.90;;;;;;5107513;28;20042;-73
2023/05/03 02:19:21;;;;;;;0.20;0.20;;;11.70;99.90;;;;;;5102904;28;20224;-76
2023/05/03 02:21:47;;;;;;;5.35;4.97;;;11.70;99.90;;;;;;5104416;28;20035;-73
2023/05/03 02:24:12;;;;;;;0.10;0.10;;;11.80;99.90;;;;;;5106265;28;20024;-73
2023/05/03 02:26:38;;;;;;;0.20;0.20;;;11.70;99.90;;;;;;5093635;28;20047;-77
2023/05/03 02:29:03;;;;;;;0.52;0.52;;;11.80;99.90;;;;;;5106854;28;20032;-76
2023/05/03 02:31:29;;;;;;;0.13;0.13;;;11.70;99.90;;;;;;5109164;28;20051;-74
2023/05/03 02:33:55;;;;;;;0.10;0.10;;;11.80;99.90;;;;;;5103987;28;20098;-80
2023/05/03 02:36:21;;;;;;;0.10;0.10;;;11.70;99.90;;;;;;5103714;28;20042;-77
2023/05/03 02:38:46;;;;;;;0.30;0.30;;;11.70;99.90;;;;;;5105363;28;20032;-75
2023/05/03 02:41:13;;;;;;;0.10;0.10;;;11.70;99.90;;;;;;5107395;28;20100;-73
2023/05/03 02:43:38;;;;;;;0.10;0.10;;;11.70;99.90;;;;;;5108263;28;20027;-75
2023/05/03 02:46:04;;;;;;;0.10;0.10;;;11.70;99.90;;;;;;5109514;28;20013;-73
2023/05/03 02:48:30;;;;;;;0.10;0.10;;;13.10;99.90;;;;;;5093089;28;20028;-74
2023/05/03 02:50:56;;;;;;;1.08;1.08;;;11.70;99.90;;;;;;5110464;28;20089;-77
2023/05/03 02:53:22;;;;;;;0.20;0.20;;;11.60;99.90;;;;;;5110815;28;20286;-73
2023/05/03 02:55:48;;;;;;;0.20;0.20;;;11.70;99.90;;;;;;5101535;28;20085;-74
2023/05/03 02:58:14;;;;;;;0.10;0.10;;;11.70;99.90;;;;;;5088653;28;20027;-76
2023/05/03 03:00:40;;;;;;;0.88;0.88;;;11.60;99.90;;;;;;5105424;28;20020;-77
2023/05/03 03:03:05;;;;;;;0.20;0.20;;;11.50;99.90;;;;;;5107018;28;20316;-76
2023/05/03 03:05:31;;;;;;;0.20;0.20;;;11.50;99.90;;;;;;5094899;28;20113;-77
2023/05/03 03:07:57;;;;;;;0.10;0.10;;;11.50;99.90;;;;;;5098080;28;20016;-73
2023/05/03 03:10:22;;;;;;;0.20;0.20;;;15.00;99.90;;;;;;5107427;28;20032;-74
2023/05/03 03:12:48;;;;;;;0.10;0.10;;;11.30;99.90;;;;;;5101220;28;20049;-74
2023/05/03 03:15:14;;;;;;;0.10;0.10;;;11.30;99.90;;;;;;5104334;28;20020;-73
2023/05/03 03:17:40;;;;;;;0.20;0.20;;;11.20;99.90;;;;;;5115562;28;20031;-74
2023/05/03 03:20:10;;;;;;;0.20;0.20;;;11.20;99.90;;;;;;5117336;28;20318;-74
2023/05/03 03:22:36;;;;;;;0.75;0.75;;;11.10;99.90;;;;;;5116538;28;20028;-75
2023/05/03 03:25:03;;;;;;;0.47;0.47;;;11.10;99.90;;;;;;5097610;28;20028;-73
2023/05/03 03:27:29;;;;;;;0.10;0.10;;;11.10;99.90;;;;;;5082764;28;20536;-73
2023/05/03 03:29:55;;;;;;;0.10;0.10;;;11.10;99.90;;;;;;5081347;28;20091;-78
2023/05/03 03:32:21;;;;;;;0.00;0.00;;;11.10;99.90;;;;;;5081325;28;20024;-73
2023/05/03 03:34:47;;;;;;;0.30;0.30;;;11.10;99.90;;;;;;5085220;28;20020;-74
2023/05/03 03:37:12;;;;;;;0.65;0.65;;;11.10;99.90;;;;;;5080782;28;20041;-73
2023/05/03 03:39:39;;;;;;;0.10;0.10;;;11.20;99.90;;;;;;5080540;28;20034;-75
2023/05/03 03:42:06;;;;;;;0.10;0.10;;;11.20;99.90;;;;;;5080011;28;20024;-74
2023/05/03 03:44:31;;;;;;;0.60;0.60;;;11.20;99.90;;;;;;5080326;28;20707;-74
2023/05/03 03:46:57;;;;;;;0.20;0.20;;;11.20;99.90;;;;;;5087657;28;20070;-73
2023/05/03 03:49:23;;;;;;;0.10;0.10;;;11.20;99.90;;;;;;5082765;28;20024;-73
2023/05/03 03:51:49;;;;;;;0.10;0.10;;;;;;;;;;5082165;28;20050;-73
2023/05/03 03:54:15;;;;;;;0.10;0.10;;;11.20;99.90;;;;;;5083673;28;20098;-73
2023/05/03 03:56:40;;;;;;;0.20;0.20;;;11.20;99.90;;;;;;5085250;28;20102;-74
2023/05/03 03:59:07;;;;;;;0.30;0.30;;;11.20;99.90;;;;;;5084747;28;20612;-74
2023/05/03 04:01:33;;;;;;;0.63;0.63;;;11.20;99.90;;;;;;5085232;28;20016;-73
2023/05/03 04:03:59;;;;;;;0.10;0.10;;;11.10;99.90;;;;;;5085321;28;20665;-73
2023/05/03 04:06:25;;;;;;;0.10;0.10;;;11.10;99.90;;;;;;5084364;28;20031;-73
2023/05/03 04:08:51;;;;;;;0.10;0.10;;;11.30;99.90;;;;;;5083889;28;20020;-73
2023/05/03 04:11:17;;;;;;;0.20;0.20;;;;;;;;;;5105018;28;20713;-76
2023/05/03 04:13:43;;;;;;;0.17;0.17;;;11.20;99.90;;;;;;5095051;28;20028;-77
2023/05/03 04:16:09;;;;;;;0.15;0.15;;;11.20;99.90;;;;;;5094616;28;20102;-74
2023/05/03 04:18:35;;;;;;;0.13;0.13;;;11.20;99.90;;;;;;5095117;28;20767;-74
2023/05/03 04:21:01;;;;;;;0.10;0.10;;;11.20;99.90;;;;;;5095053;28;20142;-73
2023/05/03 04:23:27;;;;;;;0.20;0.20;;;11.30;99.90;;;;;;5094589;28;20012;-74
2023/05/03 04:25:52;;;;;;;0.20;0.20;;;11.30;99.90;;;;;;5089478;28;20579;-74
2023/05/03 04:28:19;;;;;;;0.10;0.10;;;11.30;99.90;;;;;;5084840;28;20016;-73
2023/05/03 04:30:46;;;;;;;0.10;0.10;;;11.40;99.90;;;;;;5087731;28;20020;-74
2023/05/03 04:33:15;;;;;;;0.30;0.30;;;11.40;99.90;;;;;;5084931;28;20071;-75
2023/05/03 04:35:41;;;;;;;0.20;0.20;;;11.50;99.90;;;;;;5089740;28;20030;-77
2023/05/03 04:38:08;;;;;;;0.10;0.10;;;11.50;99.90;;;;;;5090427;28;20107;-75
2023/05/03 04:40:34;;;;;;;0.20;0.20;;;11.60;99.90;;;;;;5084473;28;20127;-76
2023/05/03 04:43:00;;;;;;;0.10;0.10;;;11.70;99.90;;;;;;5082988;28;20016;-74
2023/05/03 04:45:26;;;;;;;0.10;0.10;;;11.70;99.90;;;;;;5080800;28;20017;-74
2023/05/03 04:47:52;;;;;;;0.10;0.10;;;11.80;99.90;;;;;;5081749;28;20051;-73
2023/05/03 04:50:18;;;;;;;0.10;0.10;;;11.90;99.90;;;;;;5080909;28;20665;-74
2023/05/03 04:52:44;;;;;;;0.10;0.10;;;12.00;99.90;;;;;;5080747;28;20119;-73
2023/05/03 04:55:10;;;;;;;0.10;0.10;;;12.50;99.90;;;;;;5080905;28;20113;-74
2023/05/03 04:57:36;;;;;;;0.10;0.10;;;12.00;99.90;;;;;;5080744;28;20223;-75
2023/05/03 05:00:03;;;;;;;0.20;0.20;;;12.20;99.90;;;;;;5079937;28;20498;-75
2023/05/03 05:02:29;;;;;;;0.20;0.20;;;12.50;99.90;;;;;;5080524;28;20108;-78
2023/05/03 05:04:54;;;;;;;0.10;0.10;;;12.10;99.90;;;;;;5080576;28;20016;-79
2023/05/03 05:07:20;;;;;;;0.10;0.10;;;12.20;99.90;;;;;;5080125;28;20023;-73
2023/05/03 05:09:46;;;;;;;0.10;0.10;;;12.20;99.90;;;;;;5079499;28;20024;-73
2023/05/03 05:12:12;;;;;;;0.10;0.10;;;;;;;;;;5080016;28;20081;-75
2023/05/03 05:14:38;;;;;;;0.10;0.10;;;12.30;99.90;;;;;;5080314;28;20008;-73
2023/05/03 05:17:04;;;;;;;0.20;0.20;;;;;;;;;;5079866;28;20735;-78
2023/05/03 05:19:30;;;;;;;0.20;0.20;;;12.40;99.90;;;;;;5079672;28;20020;-73
2023/05/03 05:21:56;;;;;;;0.10;0.10;;;12.50;99.90;;;;;;5080262;28;20077;-81
2023/05/03 05:24:22;;;;;;;0.10;0.10;;;12.60;99.90;;;;;;5079382;28;20121;-75
2023/05/03 05:26:48;;;;;;;0.10;0.10;;;12.70;99.90;;;;;;5078883;28;20024;-73
2023/05/03 05:29:13;;;;;;;3.22;2.97;;;12.70;99.90;;;;;;5079938;28;20016;-73
2023/05/03 05:31:39;;;;;;;0.20;0.20;;;;;;;;;;5079594;28;20039;-74
2023/05/03 05:34:05;;;;;;;0.17;0.17;;;12.90;99.90;;;;;;5079072;28;20050;-74
2023/05/03 05:36:31;;;;;;;0.20;0.20;;;13.00;99.90;;;;;;5079155;28;20028;-73
2023/05/03 05:38:57;;;;;;;0.20;0.20;;;13.50;99.90;;;;;;5077890;28;20537;-74
2023/05/03 05:41:23;;;;;;;0.40;0.40;;;13.50;99.90;;;;;;5079281;28;20038;-73
2023/05/03 05:43:49;;;;;;;0.10;0.10;;;13.30;99.90;;;;;;5079444;28;20745;-74
2023/05/03 05:46:15;;;;;;;0.10;0.10;;;13.40;99.90;;;;;;5079812;28;20020;-75
2023/05/03 05:48:42;;;;;;;0.10;0.10;;;13.40;99.90;;;;;;5080908;28;20050;-75
2023/05/03 05:51:08;;;;;;;0.10;0.10;;;13.50;99.90;;;;;;5078939;28;20028;-73
2023/05/03 05:53:33;;;;;;;0.10;0.10;;;13.50;99.90;;;;;;5079185;28;20072;-74
2023/05/03 05:55:59;;;;;;;0.20;0.20;;;13.60;99.90;;;;;;5079212;28;20024;-73
2023/05/03 05:58:25;;;;;;;0.20;0.20;;;13.70;99.90;;;;;;5078952;28;20255;-74
2023/05/03 06:00:51;;;;;;;0.10;0.10;;;13.80;99.90;;;;;;5079193;28;20095;-73
2023/05/03 06:03:17;;;;;;;0.20;0.20;;;13.80;99.90;;;;;;5076844;28;20093;-75
2023/05/03 06:05:43;;;;;;;7.75;3.67;;;13.80;99.90;;;;;;5079096;28;20020;-73
2023/05/03 06:08:09;;;;;;;0.20;0.20;;;13.80;99.90;;;;;;5078695;28;20604;-72
2023/05/03 06:10:35;;;;;;;0.17;0.17;;;13.90;99.90;;;;;;5078059;28;20723;-81
2023/05/03 06:13:02;;;;;;;5.05;4.13;;;13.90;99.90;;;;;;5079138;28;20028;-75
2023/05/03 06:15:28;;;;;;;1.17;1.17;;;13.90;99.90;;;;;;5079651;28;20092;-72
2023/05/03 06:17:54;;;;;;;0.10;0.10;;;14.00;99.90;;;;;;5078777;28;20677;-77
2023/05/03 06:20:20;;;;;;;0.20;0.20;;;14.00;99.90;;;;;;5079534;28;20053;-79
2023/05/03 06:22:46;;;;;;;0.10;0.10;;;14.10;99.90;;;;;;5079764;28;20262;-77
2023/05/03 06:25:13;;;;;;;0.20;0.20;;;14.30;99.90;;;;;;5079127;28;20633;-74
2023/05/03 06:27:38;;;;;;;0.10;0.10;;;14.50;99.90;;;;;;5077861;28;20016;-74
2023/05/03 06:30:05;;;;;;;0.10;0.10;;;14.70;99.90;;;;;;5077952;28;20541;-74
2023/05/03 06:32:31;;;;;;;0.10;0.10;;;14.90;99.90;;;;;;5077997;28;20016;-74
2023/05/03 06:34:58;;;;;;;0.10;0.10;;;15.10;99.90;;;;;;5076454;28;20024;-76
2023/05/03 06:37:25;;;;;;;0.10;0.10;;;15.20;99.90;;;;;;5078475;28;20032;-75
2023/05/03 06:39:50;;;;;;;0.20;0.20;;;15.40;99.90;;;;;;5078115;28;20020;-77
2023/05/03 06:42:16;;;;;;;0.10;0.10;;;15.60;99.90;;;;;;5078385;28;20081;-76
2023/05/03 06:44:42;;;;;;;0.10;0.10;;;15.60;99.90;;;;;;5078275;28;20211;-74
2023/05/03 06:47:08;;;;;;;0.20;0.20;;;15.80;99.90;;;;;;5077844;28;20027;-74
2023/05/03 06:49:34;;;;;;;0.20;0.20;;;15.70;99.90;;;;;;5077774;28;20024;-74
2023/05/03 06:52:00;;;;;;;0.70;0.70;;;16.20;99.80;;;;;;5076521;28;20027;-74
2023/05/03 06:54:26;;;;;;;0.10;0.10;;;16.30;98.70;;;;;;5077136;28;20048;-74
2023/05/03 06:56:54;;;;;;;1.00;1.00;;;16.20;98.30;;;;;;5077676;28;20521;-74
2023/05/03 06:59:20;;;;;;;0.10;0.10;;;16.30;98.80;;;;;;5077985;28;20672;-74
2023/05/03 07:01:46;;;;;;;0.63;0.63;;;16.40;98.50;;;;;;5077353;28;20044;-74
2023/05/03 07:04:11;;;;;;;0.20;0.20;;;16.40;97.10;;;;;;5075561;28;20017;-73
2023/05/03 07:06:38;;;;;;;0.10;0.10;;;16.40;96.80;;;;;;5076893;28;20451;-72
2023/05/03 07:09:03;;;;;;;0.10;0.10;;;16.50;96.80;;;;;;5077019;28;20031;-76
2023/05/03 07:11:29;;;;;;;0.10;0.10;;;16.40;97.00;;;;;;5077110;28;20020;-77
2023/05/03 07:13:55;;;;;;;0.20;0.20;;;16.50;97.30;;;;;;5077766;28;20658;-78
2023/05/03 07:16:21;;;;;;;0.10;0.10;;;16.50;96.00;;;;;;5076067;28;20354;-77
2023/05/03 07:18:48;;;;;;;0.10;0.10;;;16.50;97.00;;;;;;5076455;28;20071;-72
2023/05/03 07:21:14;;;;;;;0.10;0.10;;;16.70;95.50;;;;;;5077528;28;20020;-75
2023/05/03 07:23:40;;;;;;;0.10;0.10;;;16.80;96.70;;;;;;5078362;28;20662;-76
2023/05/03 07:26:07;;;;;;;0.10;0.10;;;16.90;96.90;;;;;;5077687;28;20035;-72
2023/05/03 07:28:33;;;;;;;0.10;0.10;;;18.30;96.90;;;;;;5078077;28;20294;-85
2023/05/03 07:30:59;;;;;;;0.10;0.10;;;17.10;95.30;;;;;;5077923;28;20616;-81
2023/05/03 07:33:25;;;;;;;0.10;0.10;;;17.10;96.70;;;;;;5077908;28;20247;-83
2023/05/03 07:35:51;;;;;;;0.10;0.10;;;17.20;95.40;;;;;;5076807;28;20749;-77
2023/05/03 07:38:17;;;;;;;0.10;0.10;;;17.30;96.10;;;;;;5077857;28;20085;-77
2023/05/03 07:40:43;;;;;;;0.10;0.10;;;17.40;95.10;;;;;;5076932;28;20043;-73
2023/05/03 07:43:09;;;;;;;0.10;0.10;;;17.30;96.40;;;;;;5075784;28;20543;-72
2023/05/03 07:45:38;;;;;;;0.17;0.17;;;17.90;95.30;;;;;;5076577;28;20073;-73
2023/05/03 07:48:05;;;;;;;0.70;0.70;;;18.10;94.70;;;;;;5076850;28;20142;-72
2023/05/03 07:50:31;;;;;;;0.20;0.20;;;18.20;94.40;;;;;;5076678;28;20024;-75
2023/05/03 07:52:57;;;;;;;0.10;0.10;;;18.60;94.20;;;;;;5076666;28;20016;-72
2023/05/03 07:55:27;;;;;;;0.20;0.20;;;18.30;92.40;;;;;;5076602;28;20024;-73
2023/05/03 07:57:57;;;;;;;0.10;0.10;;;16.30;90.40;;;;;;5076097;28;20030;-83
2023/05/03 08:00:23;;;;;;;0.47;0.47;;;18.30;91.60;;;;;;5077671;28;20012;-79
2023/05/03 08:02:49;;;;;;;0.10;0.10;;;18.40;90.90;;;;;;5077964;28;20043;-83
2023/05/03 08:05:15;;;;;;;0.10;0.10;;;18.40;90.80;;;;;;5077474;28;20020;-80
2023/05/03 08:07:40;;;;;;;0.10;0.10;;;18.20;92.10;;;;;;5077313;28;20035;-81
2023/05/03 08:10:07;;;;;;;0.20;0.20;;;18.30;91.90;;;;;;5077183;28;20024;-79
2023/05/03 08:12:33;;;;;;;0.15;0.15;;;18.50;91.60;;;;;;5077590;28;20674;-73
2023/05/03 08:14:58;;;;;;;0.10;0.10;;;18.60;91.20;;;;;;5077125;28;20027;-73
2023/05/03 08:17:25;;;;;;;0.20;0.20;;;18.80;90.80;;;;;;5076856;28;20048;-74
2023/05/03 08:19:51;;;;;;;0.17;0.17;;;18.70;90.00;;;;;;5076668;28;20051;-75
2023/05/03 08:22:17;;;;;;;0.13;0.13;;;18.80;90.20;;;;;;5077296;28;20048;-74
2023/05/03 08:24:42;;;;;;;0.10;0.10;;;18.90;90.80;;;;;;5075755;28;20020;-73
2023/05/03 08:27:09;;;;;;;0.63;0.63;;;18.70;91.60;;;;;;5077250;28;20028;-73
2023/05/03 08:29:37;;;;;;;0.10;0.10;;;18.70;90.40;;;;;;5077286;28;20478;-83
2023/05/03 08:32:04;;;;;;;0.20;0.20;;;18.70;90.80;;;;;;5077348;28;20028;-73
2023/05/03 08:34:31;;;;;;;0.10;0.10;;;18.70;90.20;;;;;;5080270;28;20034;-83
2023/05/03 08:36:58;;;;;;;0.10;0.10;;;18.70;90.30;;;;;;5079157;28;20036;-74
2023/05/03 08:39:25;;;;;;;0.10;0.10;;;18.70;90.00;;;;;;5080368;28;20070;-74
2023/05/03 08:41:52;;;;;;;0.10;0.10;;;18.70;88.20;;;;;;5080099;28;20711;-73
2023/05/03 08:44:22;;;;;;;0.10;0.10;;;18.60;90.10;;;;;;5080584;28;20081;-76
2023/05/03 08:46:49;;;;;;;0.10;0.10;;;18.50;91.00;;;;;;5080229;28;20103;-74
2023/05/03 08:49:17;;;;;;;1.55;1.45;;;18.40;91.20;;;;;;5078673;28;20073;-78
2023/05/03 08:51:46;;;;;;;0.10;0.10;;;18.40;91.60;;;;;;5080541;28;20066;-76
2023/05/03 08:54:13;;;;;;;0.10;0.10;;;18.40;90.80;;;;;;5078318;28;20079;-87
2023/05/03 08:56:41;;;;;;;0.20;0.20;;;18.50;90.80;;;;;;5079505;28;20051;-87
2023/05/03 08:59:08;;;;;;;0.10;0.10;;;18.40;90.00;;;;;;5081089;28;20092;-77
2023/05/03 09:01:37;;;;;;;0.10;0.10;;;18.40;89.90;;;;;;5079785;28;20020;-74
2023/05/03 09:04:03;;;;;;;0.20;0.20;;;18.20;90.40;;;;;;5079799;28;20204;-78
2023/05/03 09:06:31;;;;;;;0.20;0.20;;;18.30;91.20;;;;;;5080119;28;20020;-76
2023/05/03 09:08:58;;;;;;;0.10;0.10;;;19.90;91.50;;;;;;5080188;28;20027;-85
2023/05/03 09:11:28;;;;;;;0.10;0.10;;;18.30;91.30;;;;;;5079058;28;20027;-73
2023/05/03 09:14:11;;;;;;;0.10;0.10;;;18.30;91.50;;;;;;5079722;28;20395;-76
2023/05/03 09:16:37;;;;;;;0.10;0.10;;;18.20;92.00;;;;;;5077193;28;20020;-73
2023/05/03 09:19:08;;;;;;;0.10;0.10;;;18.20;92.40;;;;;;5079440;28;20105;-74
2023/05/03 09:21:35;;;;;;;0.73;0.73;;;18.20;92.40;;;;;;5079257;28;20012;-74
2023/05/03 09:24:04;;;;;;;4.30;3.85;;;18.20;92.50;;;;;;5079351;28;20375;-76
2023/05/03 09:26:35;;;;;;;0.10;0.10;;;18.00;92.40;;;;;;5079534;28;20305;-73
2023/05/03 09:29:02;;;;;;;0.20;0.20;;;17.80;93.30;;;;;;5080080;28;20032;-75
2023/05/03 09:31:29;;;;;;;0.10;0.10;;;17.70;94.00;;;;;;5080672;28;20051;-74
2023/05/03 09:33:56;;;;;;;2.15;1.98;;;17.80;94.30;;;;;;5080547;28;20016;-78
2023/05/03 09:36:22;;;;;;;0.10;0.10;;;17.80;94.20;;;;;;5079388;28;20057;-73
2023/05/03 09:38:49;;;;;;;0.35;0.35;;;17.90;94.30;;;;;;5080465;28;20020;-83
2023/05/03 09:41:15;;;;;;;0.20;0.20;;;18.10;93.60;;;;;;5078358;28;20040;-75
2023/05/03 09:43:51;;;;;;;0.30;0.30;;;18.30;92.90;;;;;;5080299;28;20507;-73
2023/05/03 09:46:17;;;;;;;0.10;0.10;;;18.40;93.00;;;;;;5078756;28;20059;-73
2023/05/03 09:48:48;;;;;;;0.20;0.20;;;18.60;92.20;;;;;;5079045;28;20107;-73
2023/05/03 09:51:15;;;;;;;2.30;0.93;;;18.80;91.50;;;;;;5077858;28;20028;-74
2023/05/03 09:53:41;;;;;;;0.20;0.20;;;18.80;90.80;;;;;;5078949;28;20145;-73
2023/05/03 09:56:12;;;;;;;0.10;0.10;;;18.90;91.00;;;;;;5079094;28;20072;-73
2023/05/03 09:58:39;;;;;;;0.10;0.10;;;18.90;91.00;;;;;;5078799;28;20704;-81
2023/05/03 10:01:08;;;;;;;0.20;0.20;;;18.80;91.00;;;;;;5080292;28;20032;-83
2023/05/03 10:03:41;;;;;;;0.10;0.10;;;18.70;91.10;;;;;;5080494;28;20301;-82
2023/05/03 10:06:15;;;;;;;0.10;0.10;;;18.70;91.50;;;;;;5079607;28;20020;-83
2023/05/03 10:08:48;;;;;;;0.10;0.10;;;18.60;91.50;;;;;;5079244;28;20495;-80
2023/05/03 10:11:17;;;;;;;1.30;1.20;;;18.60;91.50;;;;;;5078800;28;20052;-76
2023/05/03 10:13:43;;;;;;;0.20;0.20;;;18.60;91.70;;;;;;5079012;28;20119;-82
2023/05/03 10:16:13;;;;;;;0.10;0.10;;;18.70;92.20;;;;;;5078704;28;20093;-80
2023/05/03 10:19:12;;;;;;;0.10;0.10;;;18.70;92.20;;;;;;5078823;28;20027;-80
2023/05/03 10:21:47;;;;;;;0.10;0.10;;;19.00;92.40;;;;;;5077798;28;20193;-83
2023/05/03 10:24:15;;;;;;;0.20;0.20;;;19.20;91.50;;;;;;5078702;28;20020;-82
2023/05/03 10:26:45;;;;;;;0.10;0.10;;;19.50;90.60;;;;;;5078393;28;20024;-82
2023/05/03 10:29:51;;;;;;;0.13;0.13;;;19.70;90.10;;;;;;5078864;28;20016;-83
2023/05/03 10:32:38;;;;;;;0.20;0.20;;;20.00;88.60;;;;;;5078157;28;20665;-83
2023/05/03 10:35:08;;;;;;;0.10;0.10;;;19.90;87.10;;;;;;5078984;28;20016;-82
2023/05/03 10:37:35;;;;;;;0.10;0.10;;;20.00;86.10;;;;;;5079314;28;20055;-77
2023/05/03 10:40:10;;;;;;;1.73;1.65;;;20.00;85.30;;;;;;5079300;28;20040;-86
2023/05/03 10:42:37;;;;;;;0.10;0.10;;;20.20;85.00;;;;;;5077708;28;20063;-73
2023/05/03 10:45:05;;;;;;;0.10;0.10;;;20.40;83.60;;;;;;5077932;28;20228;-73
2023/05/03 10:47:31;;;;;;;0.20;0.20;;;20.70;84.10;;;;;;5077485;28;20295;-73
2023/05/03 10:50:17;;;;;;;0.20;0.20;;;20.70;82.70;;;;;;5078404;28;20711;-75
2023/05/03 10:52:43;;;;;;;0.10;0.10;;;20.90;82.90;;;;;;5066859;28;20055;-76
2023/05/03 10:55:11;;;;;;;0.20;0.20;;;20.80;81.60;;;;;;5077523;28;20296;-73
2023/05/03 10:57:40;;;;;;;0.10;0.10;;;21.00;81.50;;;;;;5076645;28;20089;-73
2023/05/03 11:00:13;;;;;;;0.20;0.20;;;21.20;79.60;;;;;;5077723;28;20047;-73
2023/05/03 11:03:00;;;;;;;0.10;0.10;;;21.40;79.90;;;;;;5077544;28;20023;-84
2023/05/03 11:05:27;;;;;;;0.10;0.10;;;21.50;78.30;;;;;;5077983;28;20020;-72
2023/05/03 11:08:16;;;;;;;0.05;0.05;;;21.50;77.70;;;;;;5078447;28;20012;-73
2023/05/03 11:10:46;;;;;;;0.10;0.10;;;21.80;76.60;;;;;;5077848;28;20020;-73
2023/05/03 11:13:12;;;;;;;0.13;0.13;;;21.40;78.10;;;;;;5077921;28;20099;-72
2023/05/03 11:15:39;;;;;;;0.63;0.63;;;21.60;77.00;;;;;;5077820;28;20031;-73
2023/05/03 11:18:10;;;;;;;0.25;0.22;;;21.50;77.10;;;;;;5077366;28;20039;-75
2023/05/03 11:20:37;;;;;;;0.10;0.10;;;21.50;77.50;;;;;;5077130;28;20020;-73
2023/05/03 11:23:04;;;;;;;0.10;0.10;;;21.60;76.70;;;;;;5077279;28;20666;-73
2023/05/03 11:25:33;;;;;;;0.00;0.00;;;21.30;76.80;;;;;;5077360;28;20103;-73
2023/05/03 11:28:03;;;;;;;0.10;0.10;;;20.80;78.70;;;;;;5077998;28;20020;-78
2023/05/03 11:30:31;;;;;;;0.10;0.10;;;21.50;78.80;;;;;;5077751;28;20666;-77
2023/05/03 11:32:59;;;;;;;0.10;0.10;;;21.60;78.80;;;;;;5076028;28;20024;-80
2023/05/03 11:35:27;;;;;;;0.10;0.10;;;21.00;78.20;;;;;;5077763;28;20020;-74
2023/05/03 11:37:53;;;;;;;0.10;0.10;;;21.20;78.20;;;;;;5077471;28;20105;-74
2023/05/03 11:40:19;;;;;;;0.10;0.10;;;21.40;78.90;;;;;;5076187;28;20044;-72
2023/05/03 11:42:52;;;;;;;0.20;0.20;;;21.60;77.90;;;;;;5077415;28;20177;-83
2023/05/03 11:45:20;;;;;;;0.10;0.10;;;21.60;77.00;;;;;;5078272;28;20076;-77
2023/05/03 11:47:47;;;;;;;0.10;0.10;;;21.70;76.80;;;;;;5077578;28;20016;-70
2023/05/03 11:50:12;;;;;;;0.10;0.10;;;21.90;78.00;;;;;;5076443;28;20027;-76
2023/05/03 11:52:40;;;;;;;0.32;0.32;;;22.00;78.30;;;;;;5077113;28;20020;-72
2023/05/03 11:55:07;;;;;;;0.10;0.10;;;22.00;77.80;;;;;;5076638;28;20447;-71
2023/05/03 11:57:34;;;;;;;0.10;0.10;;;22.00;76.50;;;;;;5076600;28;20032;-73
2023/05/03 12:00:16;;;;;;;0.10;0.10;;;21.60;78.50;;;;;;5077126;28;20024;-73
2023/05/03 12:02:47;;;;;;;0.10;0.10;;;21.90;80.40;;;;;;5079110;28;20020;-74
2023/05/03 12:05:13;;;;;;;0.10;0.10;;;21.50;81.90;;;;;;5080781;28;20016;-74
2023/05/03 12:07:39;;;;;;;2.58;2.38;;;21.30;81.80;;;;;;5082162;28;20031;-74
2023/05/03 12:10:17;;;;;;;0.10;0.10;;;21.60;81.60;;;;;;5084574;28;20024;-74
2023/05/03 12:12:57;;;;;;;0.25;0.25;;;21.20;82.60;;;;;;5083611;28;20054;-73
2023/05/03 12:15:33;;;;;;;0.10;0.10;;;21.10;82.60;;;;;;5083660;28;20024;-72
2023/05/03 12:18:01;;;;;;;0.10;0.10;;;21.10;81.60;;;;;;5084714;28;20119;-72
2023/05/03 12:20:29;;;;;;;0.22;0.22;;;21.10;81.00;;;;;;5086886;28;20016;-73
2023/05/03 12:23:04;;;;;;;0.25;0.25;;;20.90;83.20;;;;;;5084856;28;20020;-80
2023/05/03 12:25:31;;;;;;;0.30;0.30;;;20.70;82.20;;;;;;5083839;28;20501;-73
2023/05/03 12:27:59;;;;;;;0.10;0.10;;;20.70;81.80;;;;;;5081504;28;20093;-73
2023/05/03 12:30:25;;;;;;;0.10;0.10;;;20.70;83.50;;;;;;5084705;28;20021;-76
2023/05/03 12:32:52;;;;;;;0.10;0.10;;;20.70;83.80;;;;;;5080398;28;20606;-75
2023/05/03 12:35:22;;;;;;;10.85;5.63;;;20.20;86.20;;;;;;5081193;28;20020;-72
2023/05/03 12:37:49;;;;;;;0.10;0.10;;;20.30;88.00;;;;;;5079604;28;20161;-76
2023/05/03 12:40:17;;;;;;;0.10;0.10;;;20.20;88.60;;;;;;5081247;28;20099;-73
2023/05/03 12:42:43;;;;;;;0.25;0.25;;;20.40;88.70;;;;;;5080254;28;20020;-73
2023/05/03 12:45:12;;;;;;;1.27;1.20;;;20.10;89.40;;;;;;5080433;28;20027;-72
2023/05/03 12:47:43;;;;;;;0.10;0.10;;;20.40;89.00;;;;;;5080637;28;20020;-72
2023/05/03 12:50:10;;;;;;;0.10;0.10;;;20.20;90.00;;;;;;5080637;28;20016;-72